sensor_id;sensor_type;location;lat;lon;timestamp;pressure;altitude;pressure_sealevel;temperature;humidity
10638;BME280;47007;49.252;8.904;2023-03-13T00:00:23;99241.16;;;10.24;100.00
10638;BME280;47007;49.252;8.904;2023-03-13T00:01:25;99186.13;;;9.92;100.00
10638;BME280;47007;49.252;8.904;2023-03-13T00:02:08;99228.94;;;10.23;100.00
10638;BME280;47007;49.252;8.904;2023-03-13T00:02:50;99224.25;;;10.25;100.00
10638;BME280;47007;49.252;8.904;2023-03-13T00:03:31;99231.84;;;10.35;100.00
10638;BME280;47007;49.252;8.904;2023-03-13T00:04:13;99240.59;;;10.35;100.00
10638;BME280;47007;49.252;8.904;2023-03-13T00:04:55;99241.22;;;10.37;100.00
10638;BME280;47007;49.252;8.904;2023-03-13T00:05:36;99234.94;;;10.38;100.00
10638;BME280;47007;49.252;8.904;2023-03-13T00:06:18;99231.22;;;10.39;100.00
10638;BME280;47007;49.252;8.904;2023-03-13T00:07:00;99239.00;;;10.41;100.00
10638;BME280;47007;49.252;8.904;2023-03-13T00:07:41;99232.88;;;10.40;100.00
10638;BME280;47007;49.252;8.904;2023-03-13T00:08:29;99228.38;;;10.41;100.00
10638;BME280;47007;49.252;8.904;2023-03-13T00:09:13;99229.66;;;10.45;100.00
10638;BME280;47007;49.252;8.904;2023-03-13T00:09:55;99232.09;;;10.47;100.00
10638;BME280;47007;49.252;8.904;2023-03-13T00:10:38;99227.56;;;10.40;100.00
10638;BME280;47007;49.252;8.904;2023-03-13T00:11:20;99227.44;;;10.49;100.00
10638;BME280;47007;49.252;8.904;2023-03-13T00:12:01;99166.91;;;10.11;100.00
10638;BME280;47007;49.252;8.904;2023-03-13T00:12:43;99229.66;;;10.52;100.00
10638;BME280;47007;49.252;8.904;2023-03-13T00:13:25;99220.31;;;10.56;100.00
10638;BME280;47007;49.252;8.904;2023-03-13T00:14:07;99224.22;;;10.60;100.00
10638;BME280;47007;49.252;8.904;2023-03-13T00:14:48;99229.31;;;10.61;100.00
10638;BME280;47007;49.252;8.904;2023-03-13T00:15:30;99219.31;;;10.63;100.00
10638;BME280;47007;49.252;8.904;2023-03-13T00:16:13;99224.41;;;10.65;100.00
10638;BME280;47007;49.252;8.904;2023-03-13T00:16:56;99225.22;;;10.65;100.00
10638;BME280;47007;49.252;8.904;2023-03-13T00:17:37;99181.94;;;10.38;100.00
10638;BME280;47007;49.252;8.904;2023-03-13T00:18:19;99218.91;;;10.66;100.00
10638;BME280;47007;49.252;8.904;2023-03-13T00:19:01;99218.91;;;10.66;100.00
10638;BME280;47007;49.252;8.904;2023-03-13T00:19:42;99156.63;;;10.29;100.00
10638;BME280;47007;49.252;8.904;2023-03-13T00:20:24;99212.81;;;10.66;100.00
10638;BME280;47007;49.252;8.904;2023-03-13T00:21:07;99200.75;;;10.57;100.00
10638;BME280;47007;49.252;8.904;2023-03-13T00:21:49;99180.75;;;10.48;100.00
10638;BME280;47007;49.252;8.904;2023-03-13T00:22:31;99217.28;;;10.65;100.00
10638;BME280;47007;49.252;8.904;2023-03-13T00:23:12;99203.41;;;10.57;100.00
10638;BME280;47007;49.252;8.904;2023-03-13T00:23:54;99193.81;;;10.49;100.00
10638;BME280;47007;49.252;8.904;2023-03-13T00:24:36;99214.63;;;10.65;100.00
10638;BME280;47007;49.252;8.904;2023-03-13T00:25:18;99193.00;;;10.55;100.00
10638;BME280;47007;49.252;8.904;2023-03-13T00:26:05;99214.25;;;10.68;100.00
10638;BME280;47007;49.252;8.904;2023-03-13T00:26:47;99182.38;;;10.49;100.00
10638;BME280;47007;49.252;8.904;2023-03-13T00:27:32;99144.38;;;10.28;100.00
10638;BME280;47007;49.252;8.904;2023-03-13T00:28:15;99206.50;;;10.67;100.00
10638;BME280;47007;49.252;8.904;2023-03-13T00:28:56;99184.03;;;10.50;100.00
10638;BME280;47007;49.252;8.904;2023-03-13T00:29:38;99206.91;;;10.70;100.00
10638;BME280;47007;49.252;8.904;2023-03-13T00:30:20;99189.38;;;10.63;100.00
10638;BME280;47007;49.252;8.904;2023-03-13T00:31:08;99203.88;;;10.73;100.00
10638;BME280;47007;49.252;8.904;2023-03-13T00:31:50;99184.06;;;10.63;100.00
10638;BME280;47007;49.252;8.904;2023-03-13T00:32:32;99212.22;;;10.77;100.00
10638;BME280;47007;49.252;8.904;2023-03-13T00:33:13;99207.75;;;10.77;100.00
10638;BME280;47007;49.252;8.904;2023-03-13T00:34:02;99197.97;;;10.78;100.00
10638;BME280;47007;49.252;8.904;2023-03-13T00:34:44;99199.59;;;10.79;100.00
10638;BME280;47007;49.252;8.904;2023-03-13T00:35:26;99195.31;;;10.78;100.00
10638;BME280;47007;49.252;8.904;2023-03-13T00:36:18;99201.44;;;10.78;100.00
10638;BME280;47007;49.252;8.904;2023-03-13T00:37:00;99166.09;;;10.58;100.00
10638;BME280;47007;49.252;8.904;2023-03-13T00:37:42;99184.91;;;10.70;100.00
10638;BME280;47007;49.252;8.904;2023-03-13T00:38:24;99195.94;;;10.80;100.00
10638;BME280;47007;49.252;8.904;2023-03-13T00:39:05;99190.44;;;10.75;100.00
10638;BME280;47007;49.252;8.904;2023-03-13T00:39:50;99203.50;;;10.83;100.00
10638;BME280;47007;49.252;8.904;2023-03-13T00:40:32;99191.25;;;10.82;100.00
10638;BME280;47007;49.252;8.904;2023-03-13T00:41:16;99191.25;;;10.82;100.00
10638;BME280;47007;49.252;8.904;2023-03-13T00:41:58;99191.25;;;10.82;100.00
10638;BME280;47007;49.252;8.904;2023-03-13T00:42:44;99187.78;;;10.75;100.00
10638;BME280;47007;49.252;8.904;2023-03-13T00:43:25;99189.41;;;10.83;100.00
10638;BME280;47007;49.252;8.904;2023-03-13T00:44:07;99176.13;;;10.76;100.00
10638;BME280;47007;49.252;8.904;2023-03-13T00:44:48;99125.31;;;10.46;100.00
10638;BME280;47007;49.252;8.904;2023-03-13T00:45:30;99177.19;;;10.88;100.00
10638;BME280;47007;49.252;8.904;2023-03-13T00:46:14;99182.09;;;10.91;100.00
10638;BME280;47007;49.252;8.904;2023-03-13T00:46:56;99183.72;;;10.92;100.00
10638;BME280;47007;49.252;8.904;2023-03-13T00:47:38;99179.44;;;10.91;100.00
10638;BME280;47007;49.252;8.904;2023-03-13T00:48:20;99166.78;;;10.80;100.00
10638;BME280;47007;49.252;8.904;2023-03-13T00:49:02;99192.31;;;10.94;100.00
10638;BME280;47007;49.252;8.904;2023-03-13T00:49:44;99167.00;;;10.85;100.00
10638;BME280;47007;49.252;8.904;2023-03-13T00:50:26;99180.06;;;10.93;100.00
10638;BME280;47007;49.252;8.904;2023-03-13T00:51:09;99173.13;;;10.92;100.00
10638;BME280;47007;49.252;8.904;2023-03-13T00:51:51;99167.63;;;10.87;100.00
10638;BME280;47007;49.252;8.904;2023-03-13T00:52:32;99171.09;;;10.88;100.00
10638;BME280;47007;49.252;8.904;2023-03-13T00:53:14;99165.78;;;10.88;100.00
10638;BME280;47007;49.252;8.904;2023-03-13T00:53:58;99169.84;;;10.90;100.00
10638;BME280;47007;49.252;8.904;2023-03-13T00:54:44;99162.09;;;10.75;100.00
10638;BME280;47007;49.252;8.904;2023-03-13T00:55:26;99158.44;;;10.83;100.00
10638;BME280;47007;49.252;8.904;2023-03-13T00:56:10;99154.34;;;10.80;100.00
10638;BME280;47007;49.252;8.904;2023-03-13T00:56:52;99165.94;;;10.79;100.00
10638;BME280;47007;49.252;8.904;2023-03-13T00:57:33;99156.38;;;10.78;100.00
10638;BME280;47007;49.252;8.904;2023-03-13T00:58:18;99161.28;;;10.82;100.00
10638;BME280;47007;49.252;8.904;2023-03-13T00:58:59;99165.38;;;10.91;100.00
10638;BME280;47007;49.252;8.904;2023-03-13T00:59:42;99137.41;;;10.75;100.00
10638;BME280;47007;49.252;8.904;2023-03-13T01:00:23;99162.91;;;10.89;100.00
10638;BME280;47007;49.252;8.904;2023-03-13T01:01:26;99127.84;;;10.74;100.00
10638;BME280;47007;49.252;8.904;2023-03-13T01:02:08;99137.19;;;10.76;100.00
10638;BME280;47007;49.252;8.904;2023-03-13T01:02:50;99135.34;;;10.77;100.00
10638;BME280;47007;49.252;8.904;2023-03-13T01:03:31;99116.81;;;10.70;100.00
10638;BME280;47007;49.252;8.904;2023-03-13T01:04:15;99115.56;;;10.66;100.00
10638;BME280;47007;49.252;8.904;2023-03-13T01:04:56;99151.91;;;10.92;100.00
10638;BME280;47007;49.252;8.904;2023-03-13T01:05:40;99137.63;;;10.80;100.00
10638;BME280;47007;49.252;8.904;2023-03-13T01:06:24;99153.13;;;10.90;100.00
10638;BME280;47007;49.252;8.904;2023-03-13T01:07:06;99144.56;;;10.88;100.00
10638;BME280;47007;49.252;8.904;2023-03-13T01:07:48;99147.81;;;10.83;100.00
10638;BME280;47007;49.252;8.904;2023-03-13T01:08:31;99123.50;;;10.66;100.00
10638;BME280;47007;49.252;8.904;2023-03-13T01:09:14;99154.13;;;10.82;100.00
10638;BME280;47007;49.252;8.904;2023-03-13T01:09:56;99121.69;;;10.67;100.00
10638;BME280;47007;49.252;8.904;2023-03-13T01:10:37;99129.63;;;10.67;100.00
10638;BME280;47007;49.252;8.904;2023-03-13T01:11:25;99148.84;;;10.75;100.00
10638;BME280;47007;49.252;8.904;2023-03-13T01:12:07;99125.16;;;10.61;100.00
10638;BME280;47007;49.252;8.904;2023-03-13T01:12:50;99142.91;;;10.73;100.00
10638;BME280;47007;49.252;8.904;2023-03-13T01:13:32;99136.56;;;10.68;100.00
10638;BME280;47007;49.252;8.904;2023-03-13T01:14:16;99132.28;;;10.60;100.00
10638;BME280;47007;49.252;8.904;2023-03-13T01:14:59;99143.09;;;10.72;100.00
10638;BME280;47007;49.252;8.904;2023-03-13T01:15:41;99136.19;;;10.71;100.00
10638;BME280;47007;49.252;8.904;2023-03-13T01:16:24;99139.84;;;10.70;100.00
10638;BME280;47007;49.252;8.904;2023-03-13T01:17:06;99140.84;;;10.69;100.00
10638;BME280;47007;49.252;8.904;2023-03-13T01:17:48;99140.66;;;10.70;100.00
10638;BME280;47007;49.252;8.904;2023-03-13T01:18:29;99136.75;;;10.66;100.00
10638;BME280;47007;49.252;8.904;2023-03-13T01:19:13;99129.63;;;10.67;100.00
10638;BME280;47007;49.252;8.904;2023-03-13T01:19:57;99130.66;;;10.66;100.00
10638;BME280;47007;49.252;8.904;2023-03-13T01:20:39;99106.97;;;10.51;100.00
10638;BME280;47007;49.252;8.904;2023-03-13T01:21:22;99078.81;;;10.43;100.00
10638;BME280;47007;49.252;8.904;2023-03-13T01:22:04;99127.22;;;10.72;100.00
10638;BME280;47007;49.252;8.904;2023-03-13T01:22:46;99123.34;;;10.74;100.00
10638;BME280;47007;49.252;8.904;2023-03-13T01:23:28;99129.03;;;10.78;100.00
10638;BME280;47007;49.252;8.904;2023-03-13T01:24:09;99127.63;;;10.82;100.00
10638;BME280;47007;49.252;8.904;2023-03-13T01:24:51;99117.22;;;10.80;100.00
10638;BME280;47007;49.252;8.904;2023-03-13T01:25:37;99131.91;;;10.83;100.00
10638;BME280;47007;49.252;8.904;2023-03-13T01:26:21;99119.88;;;10.74;100.00
10638;BME280;47007;49.252;8.904;2023-03-13T01:27:03;99115.16;;;10.69;100.00
10638;BME280;47007;49.252;8.904;2023-03-13T01:27:44;99117.22;;;10.74;100.00
10638;BME280;47007;49.252;8.904;2023-03-13T01:28:26;99083.72;;;10.53;100.00
10638;BME280;47007;49.252;8.904;2023-03-13T01:29:08;99091.47;;;10.55;100.00
10638;BME280;47007;49.252;8.904;2023-03-13T01:29:50;99117.19;;;10.67;100.00
10638;BME280;47007;49.252;8.904;2023-03-13T01:30:31;99120.66;;;10.68;100.00
10638;BME280;47007;49.252;8.904;2023-03-13T01:32:02;99123.13;;;10.63;100.00
10638;BME280;47007;49.252;8.904;2023-03-13T01:32:43;99105.13;;;10.52;100.00
10638;BME280;47007;49.252;8.904;2023-03-13T01:33:25;99100.44;;;10.47;100.00
10638;BME280;47007;49.252;8.904;2023-03-13T01:34:09;99088.59;;;10.36;100.00
10638;BME280;47007;49.252;8.904;2023-03-13T01:34:51;99116.34;;;10.54;100.00
10638;BME280;47007;49.252;8.904;2023-03-13T01:35:32;99102.28;;;10.47;100.00
10638;BME280;47007;49.252;8.904;2023-03-13T01:36:14;99095.13;;;10.40;100.00
10638;BME280;47007;49.252;8.904;2023-03-13T01:36:56;99107.38;;;10.48;100.00
10638;BME280;47007;49.252;8.904;2023-03-13T01:37:38;99101.06;;;10.49;100.00
10638;BME280;47007;49.252;8.904;2023-03-13T01:38:20;99032.63;;;10.05;100.00
10638;BME280;47007;49.252;8.904;2023-03-13T01:39:03;99104.72;;;10.55;100.00
10638;BME280;47007;49.252;8.904;2023-03-13T01:39:45;99091.69;;;10.53;100.00
10638;BME280;47007;49.252;8.904;2023-03-13T01:40:27;99092.91;;;10.64;100.00
10638;BME280;47007;49.252;8.904;2023-03-13T01:41:11;99098.06;;;10.72;100.00
10638;BME280;47007;49.252;8.904;2023-03-13T01:41:53;99100.72;;;10.72;100.00
10638;BME280;47007;49.252;8.904;2023-03-13T01:42:50;99089.91;;;10.80;100.00
10638;BME280;47007;49.252;8.904;2023-03-13T01:43:34;99088.47;;;10.84;100.00
10638;BME280;47007;49.252;8.904;2023-03-13T01:44:24;99088.47;;;10.91;100.00
10638;BME280;47007;49.252;8.904;2023-03-13T01:46:28;99090.72;;;10.94;100.00
10638;BME280;47007;49.252;8.904;2023-03-13T01:47:29;99095.00;;;10.95;100.00
10638;BME280;47007;49.252;8.904;2023-03-13T01:49:35;99086.44;;;10.93;100.00
10638;BME280;47007;49.252;8.904;2023-03-13T01:50:27;99090.31;;;10.90;100.00
10638;BME280;47007;49.252;8.904;2023-03-13T01:51:26;99093.38;;;10.87;100.00
10638;BME280;47007;49.252;8.904;2023-03-13T01:52:20;99091.13;;;10.84;100.00
10638;BME280;47007;49.252;8.904;2023-03-13T01:53:08;99094.19;;;10.81;100.00
10638;BME280;47007;49.252;8.904;2023-03-13T01:54:18;99087.66;;;10.77;100.00
10638;BME280;47007;49.252;8.904;2023-03-13T01:55:10;99087.66;;;10.70;100.00
10638;BME280;47007;49.252;8.904;2023-03-13T01:55:59;99094.16;;;10.61;100.00
10638;BME280;47007;49.252;8.904;2023-03-13T01:56:49;99089.22;;;10.52;100.00
10638;BME280;47007;49.252;8.904;2023-03-13T01:57:36;99075.56;;;10.41;100.00
10638;BME280;47007;49.252;8.904;2023-03-13T01:58:18;99081.47;;;10.43;100.00
10638;BME280;47007;49.252;8.904;2023-03-13T01:59:01;99080.84;;;10.41;100.00
10638;BME280;47007;49.252;8.904;2023-03-13T01:59:59;99047.81;;;10.24;100.00
10638;BME280;47007;49.252;8.904;2023-03-13T02:00:42;99054.31;;;10.22;100.00
10638;BME280;47007;49.252;8.904;2023-03-13T02:01:25;99071.66;;;10.31;100.00
10638;BME280;47007;49.252;8.904;2023-03-13T02:02:08;99074.50;;;10.29;100.00
10638;BME280;47007;49.252;8.904;2023-03-13T02:02:53;99075.72;;;10.27;100.00
10638;BME280;47007;49.252;8.904;2023-03-13T02:03:36;99072.66;;;10.23;100.00
10638;BME280;47007;49.252;8.904;2023-03-13T02:04:19;99070.03;;;10.23;100.00
10638;BME280;47007;49.252;8.904;2023-03-13T02:05:03;99078.34;;;10.20;100.00
10638;BME280;47007;49.252;8.904;2023-03-13T02:05:49;99058.97;;;10.13;100.00
10638;BME280;47007;49.252;8.904;2023-03-13T02:06:34;99069.56;;;10.13;100.00
10638;BME280;47007;49.252;8.904;2023-03-13T02:07:22;99045.63;;;9.93;100.00
10638;BME280;47007;49.252;8.904;2023-03-13T02:09:03;99067.06;;;10.05;100.00
10638;BME280;47007;49.252;8.904;2023-03-13T02:09:49;99058.69;;;10.01;100.00
10638;BME280;47007;49.252;8.904;2023-03-13T02:10:37;99032.53;;;9.79;100.00
10638;BME280;47007;49.252;8.904;2023-03-13T02:12:38;99055.78;;;9.90;100.00
10638;BME280;47007;49.252;8.904;2023-03-13T02:13:20;99052.13;;;9.84;100.00
10638;BME280;47007;49.252;8.904;2023-03-13T02:14:03;99048.22;;;9.80;100.00
10638;BME280;47007;49.252;8.904;2023-03-13T02:14:45;99026.81;;;9.68;100.00
10638;BME280;47007;49.252;8.904;2023-03-13T02:15:30;99043.13;;;9.79;100.00
10638;BME280;47007;49.252;8.904;2023-03-13T02:16:11;99042.13;;;9.80;100.00
10638;BME280;47007;49.252;8.904;2023-03-13T02:16:54;99030.47;;;9.67;100.00
10638;BME280;47007;49.252;8.904;2023-03-13T02:17:37;99041.50;;;9.78;100.00
10638;BME280;47007;49.252;8.904;2023-03-13T02:18:20;99038.66;;;9.79;100.00
10638;BME280;47007;49.252;8.904;2023-03-13T02:19:12;99044.13;;;9.78;100.00
10638;BME280;47007;49.252;8.904;2023-03-13T02:19:55;99037.25;;;9.77;100.00
10638;BME280;47007;49.252;8.904;2023-03-13T02:20:38;99044.34;;;9.76;100.00
10638;BME280;47007;49.252;8.904;2023-03-13T02:21:34;99037.44;;;9.75;100.00
10638;BME280;47007;49.252;8.904;2023-03-13T02:23:28;99027.66;;;9.76;100.00
10638;BME280;47007;49.252;8.904;2023-03-13T02:26:19;99025.78;;;9.69;100.00
10638;BME280;47007;49.252;8.904;2023-03-13T02:27:01;99025.16;;;9.67;100.00
10638;BME280;47007;49.252;8.904;2023-03-13T02:27:46;99019.25;;;9.65;100.00
10638;BME280;47007;49.252;8.904;2023-03-13T02:28:31;99015.78;;;9.65;100.00
10638;BME280;47007;49.252;8.904;2023-03-13T02:29:16;99024.53;;;9.65;100.00
10638;BME280;47007;49.252;8.904;2023-03-13T02:29:59;99023.72;;;9.65;100.00
10638;BME280;47007;49.252;8.904;2023-03-13T02:30:42;99021.31;;;9.63;100.00
10638;BME280;47007;49.252;8.904;2023-03-13T02:31:25;99025.97;;;9.61;100.00
10638;BME280;47007;49.252;8.904;2023-03-13T02:32:08;99010.66;;;9.50;100.00
10638;BME280;47007;49.252;8.904;2023-03-13T02:32:50;99019.44;;;9.57;100.00
10638;BME280;47007;49.252;8.904;2023-03-13T02:33:36;99020.63;;;9.55;100.00
10638;BME280;47007;49.252;8.904;2023-03-13T02:34:22;99020.63;;;9.55;100.00
10638;BME280;47007;49.252;8.904;2023-03-13T02:35:11;99019.81;;;9.54;100.00
10638;BME280;47007;49.252;8.904;2023-03-13T02:35:54;99018.81;;;9.55;100.00
10638;BME280;47007;49.252;8.904;2023-03-13T02:36:36;99020.44;;;9.56;100.00
10638;BME280;47007;49.252;8.904;2023-03-13T02:37:18;99010.84;;;9.49;100.00
10638;BME280;47007;49.252;8.904;2023-03-13T02:38:05;99003.09;;;9.47;100.00
10638;BME280;47007;49.252;8.904;2023-03-13T02:38:55;99014.94;;;9.58;100.00
10638;BME280;47007;49.252;8.904;2023-03-13T02:39:42;99023.06;;;9.56;100.00
10638;BME280;47007;49.252;8.904;2023-03-13T02:40:47;99015.13;;;9.50;100.00
10638;BME280;47007;49.252;8.904;2023-03-13T02:41:30;99019.16;;;9.46;100.00
10638;BME280;47007;49.252;8.904;2023-03-13T02:42:14;99009.78;;;9.43;100.00
10638;BME280;47007;49.252;8.904;2023-03-13T02:43:00;99005.31;;;9.44;100.00
10638;BME280;47007;49.252;8.904;2023-03-13T02:43:43;98941.44;;;9.06;100.00
10638;BME280;47007;49.252;8.904;2023-03-13T02:44:24;98997.81;;;9.47;100.00
10638;BME280;47007;49.252;8.904;2023-03-13T02:45:07;98991.06;;;9.38;100.00
10638;BME280;47007;49.252;8.904;2023-03-13T02:46:47;99000.03;;;9.44;100.00
10638;BME280;47007;49.252;8.904;2023-03-13T02:47:29;98999.00;;;9.38;100.00
10638;BME280;47007;49.252;8.904;2023-03-13T02:48:10;98992.66;;;9.32;100.00
10638;BME280;47007;49.252;8.904;2023-03-13T02:48:54;98997.50;;;9.29;100.00
10638;BME280;47007;49.252;8.904;2023-03-13T02:49:38;98991.59;;;9.27;100.00
10638;BME280;47007;49.252;8.904;2023-03-13T02:50:20;98989.53;;;9.22;100.00
10638;BME280;47007;49.252;8.904;2023-03-13T02:51:07;98996.03;;;9.20;100.00
10638;BME280;47007;49.252;8.904;2023-03-13T02:51:53;98999.47;;;9.14;100.00
10638;BME280;47007;49.252;8.904;2023-03-13T02:52:37;98993.53;;;9.12;100.00
10638;BME280;47007;49.252;8.904;2023-03-13T02:53:20;98986.19;;;9.07;100.00
10638;BME280;47007;49.252;8.904;2023-03-13T02:54:06;98983.91;;;9.04;100.00
10638;BME280;47007;49.252;8.904;2023-03-13T02:54:52;98978.44;;;9.06;100.00
10638;BME280;47007;49.252;8.904;2023-03-13T02:55:39;98981.53;;;9.09;100.00
10638;BME280;47007;49.252;8.904;2023-03-13T02:56:25;98966.84;;;9.00;100.00
10638;BME280;47007;49.252;8.904;2023-03-13T02:57:08;98977.22;;;9.02;100.00
10638;BME280;47007;49.252;8.904;2023-03-13T02:57:50;98984.13;;;9.02;100.00
10638;BME280;47007;49.252;8.904;2023-03-13T02:58:37;98954.72;;;8.84;100.00
10638;BME280;47007;49.252;8.904;2023-03-13T02:59:31;98981.25;;;8.97;100.00
10638;BME280;47007;49.252;8.904;2023-03-13T03:00:14;98982.06;;;8.98;100.00
10638;BME280;47007;49.252;8.904;2023-03-13T03:00:58;98982.06;;;8.98;100.00
10638;BME280;47007;49.252;8.904;2023-03-13T03:01:51;98979.63;;;8.96;100.00
10638;BME280;47007;49.252;8.904;2023-03-13T03:02:33;98984.34;;;9.01;100.00
10638;BME280;47007;49.252;8.904;2023-03-13T03:03:14;98984.13;;;9.02;100.00
10638;BME280;47007;49.252;8.904;2023-03-13T03:03:56;98987.56;;;9.03;100.00
10638;BME280;47007;49.252;8.904;2023-03-13T03:04:38;98978.41;;;8.99;100.00
10638;BME280;47007;49.252;8.904;2023-03-13T03:05:20;98995.50;;;9.03;100.00
10638;BME280;47007;49.252;8.904;2023-03-13T03:06:05;98987.38;;;9.05;100.00
10638;BME280;47007;49.252;8.904;2023-03-13T03:06:49;98980.06;;;9.00;100.00
10638;BME280;47007;49.252;8.904;2023-03-13T03:07:31;98974.13;;;8.98;100.00
10638;BME280;47007;49.252;8.904;2023-03-13T03:08:13;98951.91;;;8.86;100.00
10638;BME280;47007;49.252;8.904;2023-03-13T03:08:54;98977.44;;;9.07;100.00
10638;BME280;47007;49.252;8.904;2023-03-13T03:09:37;98981.16;;;9.12;100.00
10638;BME280;47007;49.252;8.904;2023-03-13T03:10:24;98967.50;;;9.09;100.00
10638;BME280;47007;49.252;8.904;2023-03-13T03:11:06;98976.06;;;9.11;100.00
10638;BME280;47007;49.252;8.904;2023-03-13T03:11:48;98980.13;;;9.13;100.00
10638;BME280;47007;49.252;8.904;2023-03-13T03:12:30;98974.25;;;9.18;100.00
10638;BME280;47007;49.252;8.904;2023-03-13T03:13:12;98978.16;;;9.22;100.00
10638;BME280;47007;49.252;8.904;2023-03-13T03:13:54;98970.59;;;9.19;100.00
10638;BME280;47007;49.252;8.904;2023-03-13T03:14:36;98960.22;;;9.17;100.00
10638;BME280;47007;49.252;8.904;2023-03-13T03:15:19;98982.63;;;9.28;100.00
10638;BME280;47007;49.252;8.904;2023-03-13T03:16:09;98971.69;;;9.31;100.00
10638;BME280;47007;49.252;8.904;2023-03-13T03:16:52;98973.31;;;9.32;100.00
10638;BME280;47007;49.252;8.904;2023-03-13T03:17:34;98969.66;;;9.33;100.00
10638;BME280;47007;49.252;8.904;2023-03-13T03:18:16;98972.31;;;9.33;100.00
10638;BME280;47007;49.252;8.904;2023-03-13T03:18:57;98965.00;;;9.35;100.00
10638;BME280;47007;49.252;8.904;2023-03-13T03:19:39;98933.59;;;9.19;100.00
10638;BME280;47007;49.252;8.904;2023-03-13T03:20:23;98882.56;;;8.84;100.00
10638;BME280;47007;49.252;8.904;2023-03-13T03:21:05;98966.00;;;9.34;100.00
10638;BME280;47007;49.252;8.904;2023-03-13T03:21:51;98963.59;;;9.39;100.00
10638;BME280;47007;49.252;8.904;2023-03-13T03:22:33;98962.38;;;9.42;100.00
10638;BME280;47007;49.252;8.904;2023-03-13T03:23:15;98965.81;;;9.42;100.00
10638;BME280;47007;49.252;8.904;2023-03-13T03:23:57;98958.31;;;9.46;100.00
10638;BME280;47007;49.252;8.904;2023-03-13T03:24:39;98956.69;;;9.45;100.00
10638;BME280;47007;49.252;8.904;2023-03-13T03:25:20;98955.50;;;9.47;100.00
10638;BME280;47007;49.252;8.904;2023-03-13T03:26:03;98932.25;;;9.36;100.00
10638;BME280;47007;49.252;8.904;2023-03-13T03:26:46;98930.44;;;9.36;100.00
10638;BME280;47007;49.252;8.904;2023-03-13T03:27:36;98936.34;;;9.45;100.00
10638;BME280;47007;49.252;8.904;2023-03-13T03:28:21;98902.94;;;9.31;100.00
10638;BME280;47007;49.252;8.904;2023-03-13T03:29:02;98935.78;;;9.56;100.00
10638;BME280;47007;49.252;8.904;2023-03-13T03:29:44;98921.31;;;9.52;100.00
10638;BME280;47007;49.252;8.904;2023-03-13T03:30:26;98941.31;;;9.68;100.00
10638;BME280;47007;49.252;8.904;2023-03-13T03:31:10;98949.88;;;9.70;100.00
10638;BME280;47007;49.252;8.904;2023-03-13T03:31:52;98943.75;;;9.69;100.00
10638;BME280;47007;49.252;8.904;2023-03-13T03:32:34;98942.75;;;9.70;100.00
10638;BME280;47007;49.252;8.904;2023-03-13T03:33:16;98939.91;;;9.72;100.00
10638;BME280;47007;49.252;8.904;2023-03-13T03:33:58;98935.44;;;9.72;100.00
10638;BME280;47007;49.252;8.904;2023-03-13T03:34:41;98945.00;;;9.73;100.00
10638;BME280;47007;49.252;8.904;2023-03-13T03:35:23;98930.53;;;9.69;100.00
10638;BME280;47007;49.252;8.904;2023-03-13T03:36:08;98931.59;;;9.75;100.00
10638;BME280;47007;49.252;8.904;2023-03-13T03:36:50;98939.31;;;9.77;100.00
10638;BME280;47007;49.252;8.904;2023-03-13T03:37:32;98938.28;;;9.78;100.00
10638;BME280;47007;49.252;8.904;2023-03-13T03:38:15;98933.81;;;9.78;100.00
10638;BME280;47007;49.252;8.904;2023-03-13T03:38:57;98933.41;;;9.75;100.00
10638;BME280;47007;49.252;8.904;2023-03-13T03:39:40;98926.88;;;9.77;100.00
10638;BME280;47007;49.252;8.904;2023-03-13T03:40:22;98929.13;;;9.80;100.00
10638;BME280;47007;49.252;8.904;2023-03-13T03:41:04;98920.81;;;9.77;100.00
10638;BME280;47007;49.252;8.904;2023-03-13T03:41:47;98930.38;;;9.84;100.00
10638;BME280;47007;49.252;8.904;2023-03-13T03:42:28;98926.72;;;9.85;100.00
10638;BME280;47007;49.252;8.904;2023-03-13T03:43:10;98902.44;;;9.68;100.00
10638;BME280;47007;49.252;8.904;2023-03-13T03:43:52;98925.91;;;9.85;100.00
10638;BME280;47007;49.252;8.904;2023-03-13T03:44:37;98924.06;;;9.85;100.00
10638;BME280;47007;49.252;8.904;2023-03-13T03:45:19;98915.31;;;9.85;100.00
10638;BME280;47007;49.252;8.904;2023-03-13T03:46:02;98924.28;;;9.84;100.00
10638;BME280;47007;49.252;8.904;2023-03-13T03:46:44;98923.44;;;9.83;100.00
10638;BME280;47007;49.252;8.904;2023-03-13T03:47:26;98900.59;;;9.69;100.00
10638;BME280;47007;49.252;8.904;2023-03-13T03:48:07;98924.47;;;9.82;100.00
10638;BME280;47007;49.252;8.904;2023-03-13T03:48:49;98920.19;;;9.81;100.00
10638;BME280;47007;49.252;8.904;2023-03-13T03:49:31;98913.03;;;9.68;100.00
10638;BME280;47007;49.252;8.904;2023-03-13T03:50:12;98916.91;;;9.72;100.00
10638;BME280;47007;49.252;8.904;2023-03-13T03:51:04;98928.94;;;9.82;100.00
10638;BME280;47007;49.252;8.904;2023-03-13T03:51:49;98926.28;;;9.82;100.00
10638;BME280;47007;49.252;8.904;2023-03-13T03:52:36;98861.47;;;9.38;100.00
10638;BME280;47007;49.252;8.904;2023-03-13T03:53:18;98850.44;;;9.28;100.00
10638;BME280;47007;49.252;8.904;2023-03-13T03:54:00;98857.78;;;9.32;100.00
10638;BME280;47007;49.252;8.904;2023-03-13T03:54:44;98908.34;;;9.64;100.00
10638;BME280;47007;49.252;8.904;2023-03-13T03:55:27;98910.38;;;9.62;100.00
10638;BME280;47007;49.252;8.904;2023-03-13T03:56:09;98914.66;;;9.63;100.00
10638;BME280;47007;49.252;8.904;2023-03-13T03:56:56;98923.59;;;9.68;100.00
10638;BME280;47007;49.252;8.904;2023-03-13T03:57:37;98909.94;;;9.52;100.00
10638;BME280;47007;49.252;8.904;2023-03-13T03:58:23;98907.25;;;9.45;100.00
10638;BME280;47007;49.252;8.904;2023-03-13T03:59:22;98896.44;;;9.40;100.00
10638;BME280;47007;49.252;8.904;2023-03-13T04:00:11;98919.69;;;9.51;100.00
10638;BME280;47007;49.252;8.904;2023-03-13T04:00:59;98915.44;;;9.50;100.00